sensor_id;sensor_type;location;lat;lon;timestamp;P1;durP1;ratioP1;P2;durP2;ratioP2
63038;SDS011;49125;48.812;9.206;2022-09-01T00:02:13;37.33;;;31.10;;
63038;SDS011;49125;48.812;9.206;2022-09-01T00:04:41;34.97;;;31.13;;
63038;SDS011;49125;48.812;9.206;2022-09-01T00:07:08;33.33;;;29.73;;
63038;SDS011;49125;48.812;9.206;2022-09-01T00:09:36;31.10;;;27.93;;
63038;SDS011;49125;48.812;9.206;2022-09-01T00:12:03;30.70;;;27.03;;
63038;SDS011;49125;48.812;9.206;2022-09-01T00:14:31;35.17;;;31.37;;
63038;SDS011;49125;48.812;9.206;2022-09-01T00:16:58;31.60;;;28.43;;
63038;SDS011;49125;48.812;9.206;2022-09-01T00:19:25;32.20;;;28.03;;
63038;SDS011;49125;48.812;9.206;2022-09-01T00:21:53;35.43;;;31.43;;
63038;SDS011;49125;48.812;9.206;2022-09-01T00:24:20;36.17;;;30.97;;
63038;SDS011;49125;48.812;9.206;2022-09-01T00:26:46;28.87;;;26.00;;
63038;SDS011;49125;48.812;9.206;2022-09-01T00:29:12;29.97;;;26.97;;
63038;SDS011;49125;48.812;9.206;2022-09-01T00:31:39;37.23;;;33.13;;
63038;SDS011;49125;48.812;9.206;2022-09-01T00:34:05;36.57;;;30.73;;
63038;SDS011;49125;48.812;9.206;2022-09-01T00:36:31;35.20;;;30.70;;
63038;SDS011;49125;48.812;9.206;2022-09-01T00:38:57;34.53;;;29.73;;
63038;SDS011;49125;48.812;9.206;2022-09-01T00:41:24;32.63;;;29.27;;
63038;SDS011;49125;48.812;9.206;2022-09-01T00:43:53;31.93;;;28.47;;
63038;SDS011;49125;48.812;9.206;2022-09-01T00:46:43;29.30;;;26.23;;
63038;SDS011;49125;48.812;9.206;2022-09-01T00:51:56;32.40;;;28.77;;
63038;SDS011;49125;48.812;9.206;2022-09-01T00:54:27;34.50;;;29.77;;
63038;SDS011;49125;48.812;9.206;2022-09-01T00:56:56;34.63;;;30.43;;
63038;SDS011;49125;48.812;9.206;2022-09-01T00:59:23;29.97;;;26.87;;
63038;SDS011;49125;48.812;9.206;2022-09-01T01:01:51;32.67;;;29.17;;
63038;SDS011;49125;48.812;9.206;2022-09-01T01:04:17;27.83;;;25.03;;
63038;SDS011;49125;48.812;9.206;2022-09-01T01:06:44;31.87;;;28.77;;
63038;SDS011;49125;48.812;9.206;2022-09-01T01:09:22;30.97;;;27.77;;
63038;SDS011;49125;48.812;9.206;2022-09-01T01:11:50;28.23;;;25.17;;
63038;SDS011;49125;48.812;9.206;2022-09-01T01:14:17;27.10;;;24.33;;
63038;SDS011;49125;48.812;9.206;2022-09-01T01:16:43;30.20;;;27.10;;
63038;SDS011;49125;48.812;9.206;2022-09-01T01:19:14;33.33;;;29.73;;
63038;SDS011;49125;48.812;9.206;2022-09-01T01:22:09;30.20;;;27.00;;
63038;SDS011;49125;48.812;9.206;2022-09-01T01:24:58;31.40;;;27.97;;
63038;SDS011;49125;48.812;9.206;2022-09-01T01:27:29;31.40;;;28.13;;
63038;SDS011;49125;48.812;9.206;2022-09-01T01:29:56;28.67;;;25.87;;
63038;SDS011;49125;48.812;9.206;2022-09-01T01:32:21;30.50;;;27.20;;
63038;SDS011;49125;48.812;9.206;2022-09-01T01:34:47;29.03;;;26.03;;
63038;SDS011;49125;48.812;9.206;2022-09-01T01:37:13;29.07;;;26.20;;
63038;SDS011;49125;48.812;9.206;2022-09-01T01:39:39;27.20;;;24.50;;
63038;SDS011;49125;48.812;9.206;2022-09-01T01:42:08;33.07;;;29.60;;
63038;SDS011;49125;48.812;9.206;2022-09-01T01:44:35;30.80;;;27.63;;
63038;SDS011;49125;48.812;9.206;2022-09-01T01:47:02;29.83;;;26.17;;
63038;SDS011;49125;48.812;9.206;2022-09-01T01:49:32;29.50;;;26.60;;
63038;SDS011;49125;48.812;9.206;2022-09-01T01:51:58;29.17;;;26.00;;
63038;SDS011;49125;48.812;9.206;2022-09-01T01:54:25;26.03;;;23.30;;
63038;SDS011;49125;48.812;9.206;2022-09-01T01:56:53;30.40;;;27.27;;
63038;SDS011;49125;48.812;9.206;2022-09-01T01:59:19;32.43;;;27.50;;
63038;SDS011;49125;48.812;9.206;2022-09-01T02:01:48;30.97;;;27.60;;
63038;SDS011;49125;48.812;9.206;2022-09-01T02:04:15;34.47;;;29.10;;
63038;SDS011;49125;48.812;9.206;2022-09-01T02:06:42;29.07;;;26.13;;
63038;SDS011;49125;48.812;9.206;2022-09-01T02:09:10;33.13;;;28.13;;
63038;SDS011;49125;48.812;9.206;2022-09-01T02:11:37;29.60;;;26.40;;
63038;SDS011;49125;48.812;9.206;2022-09-01T02:14:04;31.13;;;27.53;;
63038;SDS011;49125;48.812;9.206;2022-09-01T02:16:31;32.17;;;28.77;;
63038;SDS011;49125;48.812;9.206;2022-09-01T02:18:58;34.67;;;28.27;;
63038;SDS011;49125;48.812;9.206;2022-09-01T02:21:24;31.00;;;27.70;;
63038;SDS011;49125;48.812;9.206;2022-09-01T02:23:58;30.17;;;26.90;;
63038;SDS011;49125;48.812;9.206;2022-09-01T02:26:30;34.13;;;28.47;;
63038;SDS011;49125;48.812;9.206;2022-09-01T02:29:04;30.27;;;26.80;;
63038;SDS011;49125;48.812;9.206;2022-09-01T02:31:42;32.83;;;26.90;;
63038;SDS011;49125;48.812;9.206;2022-09-01T02:34:09;29.33;;;26.10;;
63038;SDS011;49125;48.812;9.206;2022-09-01T02:36:38;31.30;;;24.60;;
63038;SDS011;49125;48.812;9.206;2022-09-01T02:39:12;28.40;;;25.07;;
63038;SDS011;49125;48.812;9.206;2022-09-01T02:41:42;31.33;;;27.13;;
63038;SDS011;49125;48.812;9.206;2022-09-01T02:44:08;30.37;;;27.07;;
63038;SDS011;49125;48.812;9.206;2022-09-01T02:46:39;31.63;;;27.87;;
63038;SDS011;49125;48.812;9.206;2022-09-01T02:49:10;31.43;;;26.03;;
63038;SDS011;49125;48.812;9.206;2022-09-01T02:51:44;27.43;;;24.47;;
63038;SDS011;49125;48.812;9.206;2022-09-01T02:54:13;29.90;;;26.77;;
63038;SDS011;49125;48.812;9.206;2022-09-01T02:56:41;27.03;;;24.23;;
63038;SDS011;49125;48.812;9.206;2022-09-01T02:59:12;30.53;;;27.20;;
63038;SDS011;49125;48.812;9.206;2022-09-01T03:01:46;29.20;;;26.07;;
63038;SDS011;49125;48.812;9.206;2022-09-01T03:04:12;26.97;;;24.23;;
63038;SDS011;49125;48.812;9.206;2022-09-01T03:06:38;25.67;;;22.97;;
63038;SDS011;49125;48.812;9.206;2022-09-01T03:09:05;28.87;;;25.70;;
63038;SDS011;49125;48.812;9.206;2022-09-01T03:11:34;30.07;;;26.33;;
63038;SDS011;49125;48.812;9.206;2022-09-01T03:14:03;29.43;;;26.37;;
63038;SDS011;49125;48.812;9.206;2022-09-01T03:16:29;28.93;;;25.53;;
63038;SDS011;49125;48.812;9.206;2022-09-01T03:18:55;30.23;;;26.47;;
63038;SDS011;49125;48.812;9.206;2022-09-01T03:21:21;28.80;;;25.37;;
63038;SDS011;49125;48.812;9.206;2022-09-01T03:23:48;30.07;;;26.70;;
63038;SDS011;49125;48.812;9.206;2022-09-01T03:26:15;31.73;;;27.80;;
63038;SDS011;49125;48.812;9.206;2022-09-01T03:28:43;35.83;;;30.67;;
63038;SDS011;49125;48.812;9.206;2022-09-01T03:31:10;35.80;;;30.37;;
63038;SDS011;49125;48.812;9.206;2022-09-01T03:33:35;29.10;;;26.23;;
63038;SDS011;49125;48.812;9.206;2022-09-01T03:36:01;32.40;;;28.93;;
63038;SDS011;49125;48.812;9.206;2022-09-01T03:38:27;35.00;;;29.77;;
63038;SDS011;49125;48.812;9.206;2022-09-01T03:40:54;31.60;;;28.23;;
63038;SDS011;49125;48.812;9.206;2022-09-01T03:43:26;42.47;;;33.53;;
63038;SDS011;49125;48.812;9.206;2022-09-01T03:45:53;40.40;;;30.87;;
63038;SDS011;49125;48.812;9.206;2022-09-01T03:48:20;32.53;;;27.30;;
63038;SDS011;49125;48.812;9.206;2022-09-01T03:50:48;31.13;;;27.73;;
63038;SDS011;49125;48.812;9.206;2022-09-01T03:53:16;36.33;;;30.73;;
63038;SDS011;49125;48.812;9.206;2022-09-01T03:55:44;29.83;;;26.63;;
63038;SDS011;49125;48.812;9.206;2022-09-01T03:58:11;29.97;;;25.73;;
63038;SDS011;49125;48.812;9.206;2022-09-01T04:00:40;28.50;;;25.57;;
63038;SDS011;49125;48.812;9.206;2022-09-01T04:03:09;34.63;;;29.03;;
63038;SDS011;49125;48.812;9.206;2022-09-01T04:05:37;29.67;;;26.67;;
63038;SDS011;49125;48.812;9.206;2022-09-01T04:08:06;32.83;;;27.73;;
63038;SDS011;49125;48.812;9.206;2022-09-01T04:10:36;37.50;;;30.93;;
63038;SDS011;49125;48.812;9.206;2022-09-01T04:13:14;44.63;;;33.60;;
63038;SDS011;49125;48.812;9.206;2022-09-01T04:15:51;45.43;;;35.60;;
63038;SDS011;49125;48.812;9.206;2022-09-01T04:18:17;37.07;;;31.10;;
63038;SDS011;49125;48.812;9.206;2022-09-01T04:20:48;36.27;;;31.20;;
63038;SDS011;49125;48.812;9.206;2022-09-01T04:23:20;41.73;;;34.43;;
63038;SDS011;49125;48.812;9.206;2022-09-01T04:26:03;42.23;;;33.57;;
63038;SDS011;49125;48.812;9.206;2022-09-01T04:28:42;35.37;;;30.90;;
63038;SDS011;49125;48.812;9.206;2022-09-01T04:31:11;40.10;;;34.17;;
63038;SDS011;49125;48.812;9.206;2022-09-01T04:33:44;49.43;;;36.77;;
63038;SDS011;49125;48.812;9.206;2022-09-01T04:36:15;48.07;;;37.73;;
63038;SDS011;49125;48.812;9.206;2022-09-01T04:38:54;49.27;;;36.27;;
63038;SDS011;49125;48.812;9.206;2022-09-01T04:41:22;49.63;;;38.33;;
63038;SDS011;49125;48.812;9.206;2022-09-01T04:43:50;44.70;;;37.20;;
63038;SDS011;49125;48.812;9.206;2022-09-01T04:46:19;54.57;;;38.37;;
63038;SDS011;49125;48.812;9.206;2022-09-01T04:48:46;37.07;;;31.57;;
63038;SDS011;49125;48.812;9.206;2022-09-01T04:51:12;47.87;;;34.83;;
63038;SDS011;49125;48.812;9.206;2022-09-01T04:53:39;35.13;;;30.47;;
63038;SDS011;49125;48.812;9.206;2022-09-01T04:56:07;42.93;;;32.37;;
63038;SDS011;49125;48.812;9.206;2022-09-01T04:58:36;37.63;;;32.27;;
63038;SDS011;49125;48.812;9.206;2022-09-01T05:01:11;41.67;;;32.10;;
63038;SDS011;49125;48.812;9.206;2022-09-01T05:03:38;51.17;;;38.17;;
63038;SDS011;49125;48.812;9.206;2022-09-01T05:06:04;49.00;;;36.27;;
63038;SDS011;49125;48.812;9.206;2022-09-01T05:08:37;41.40;;;32.43;;
63038;SDS011;49125;48.812;9.206;2022-09-01T05:11:04;41.33;;;33.23;;
63038;SDS011;49125;48.812;9.206;2022-09-01T05:13:31;47.80;;;35.57;;
63038;SDS011;49125;48.812;9.206;2022-09-01T05:16:02;45.47;;;35.70;;
63038;SDS011;49125;48.812;9.206;2022-09-01T05:18:31;38.67;;;34.37;;
63038;SDS011;49125;48.812;9.206;2022-09-01T05:20:57;39.10;;;32.43;;
63038;SDS011;49125;48.812;9.206;2022-09-01T05:23:35;36.97;;;30.10;;
63038;SDS011;49125;48.812;9.206;2022-09-01T05:26:05;37.00;;;33.00;;
63038;SDS011;49125;48.812;9.206;2022-09-01T05:28:40;49.03;;;35.33;;
63038;SDS011;49125;48.812;9.206;2022-09-01T05:31:10;49.00;;;37.80;;
63038;SDS011;49125;48.812;9.206;2022-09-01T05:33:37;39.13;;;33.00;;
63038;SDS011;49125;48.812;9.206;2022-09-01T05:36:10;39.83;;;34.77;;
63038;SDS011;49125;48.812;9.206;2022-09-01T05:38:37;36.63;;;32.53;;
63038;SDS011;49125;48.812;9.206;2022-09-01T05:41:06;44.60;;;34.70;;
63038;SDS011;49125;48.812;9.206;2022-09-01T05:43:34;45.63;;;34.23;;
63038;SDS011;49125;48.812;9.206;2022-09-01T05:46:00;43.47;;;33.67;;
63038;SDS011;49125;48.812;9.206;2022-09-01T05:48:30;37.63;;;33.53;;
63038;SDS011;49125;48.812;9.206;2022-09-01T05:50:59;41.47;;;34.47;;
63038;SDS011;49125;48.812;9.206;2022-09-01T05:53:25;32.60;;;28.30;;
63038;SDS011;49125;48.812;9.206;2022-09-01T05:55:55;35.57;;;30.73;;
63038;SDS011;49125;48.812;9.206;2022-09-01T05:58:22;35.00;;;31.27;;
63038;SDS011;49125;48.812;9.206;2022-09-01T06:00:50;32.60;;;29.10;;
63038;SDS011;49125;48.812;9.206;2022-09-01T06:03:18;32.40;;;29.20;;
63038;SDS011;49125;48.812;9.206;2022-09-01T06:05:46;29.60;;;26.60;;
63038;SDS011;49125;48.812;9.206;2022-09-01T06:08:17;29.53;;;26.33;;
63038;SDS011;49125;48.812;9.206;2022-09-01T06:10:44;29.90;;;26.73;;
63038;SDS011;49125;48.812;9.206;2022-09-01T06:13:10;28.88;;;26.08;;
63038;SDS011;49125;48.812;9.206;2022-09-01T06:15:39;30.55;;;27.52;;
63038;SDS011;49125;48.812;9.206;2022-09-01T06:18:06;28.73;;;25.83;;
63038;SDS011;49125;48.812;9.206;2022-09-01T06:20:33;28.53;;;25.73;;
63038;SDS011;49125;48.812;9.206;2022-09-01T06:23:02;28.02;;;25.30;;
63038;SDS011;49125;48.812;9.206;2022-09-01T06:25:27;25.23;;;22.75;;
63038;SDS011;49125;48.812;9.206;2022-09-01T06:27:54;26.92;;;24.35;;
63038;SDS011;49125;48.812;9.206;2022-09-01T06:30:21;24.60;;;22.25;;
63038;SDS011;49125;48.812;9.206;2022-09-01T06:32:50;24.92;;;22.42;;
63038;SDS011;49125;48.812;9.206;2022-09-01T06:35:19;24.90;;;22.67;;
63038;SDS011;49125;48.812;9.206;2022-09-01T06:37:46;23.20;;;20.85;;
63038;SDS011;49125;48.812;9.206;2022-09-01T06:40:13;24.30;;;21.92;;
63038;SDS011;49125;48.812;9.206;2022-09-01T06:42:43;25.33;;;22.92;;
63038;SDS011;49125;48.812;9.206;2022-09-01T06:45:12;22.42;;;20.48;;
63038;SDS011;49125;48.812;9.206;2022-09-01T06:47:39;24.27;;;21.98;;
63038;SDS011;49125;48.812;9.206;2022-09-01T06:50:08;23.20;;;20.85;;
63038;SDS011;49125;48.812;9.206;2022-09-01T06:52:34;24.85;;;22.50;;
63038;SDS011;49125;48.812;9.206;2022-09-01T06:55:00;24.25;;;21.83;;
63038;SDS011;49125;48.812;9.206;2022-09-01T06:57:26;24.67;;;22.27;;
63038;SDS011;49125;48.812;9.206;2022-09-01T06:59:51;23.70;;;21.63;;
63038;SDS011;49125;48.812;9.206;2022-09-01T07:02:18;23.42;;;20.98;;
63038;SDS011;49125;48.812;9.206;2022-09-01T07:04:43;21.83;;;19.83;;
63038;SDS011;49125;48.812;9.206;2022-09-01T07:07:09;20.90;;;19.00;;
63038;SDS011;49125;48.812;9.206;2022-09-01T07:09:37;21.77;;;19.73;;
63038;SDS011;49125;48.812;9.206;2022-09-01T07:12:05;21.67;;;19.77;;
63038;SDS011;49125;48.812;9.206;2022-09-01T07:14:31;22.48;;;20.13;;
63038;SDS011;49125;48.812;9.206;2022-09-01T07:16:57;19.98;;;18.27;;
63038;SDS011;49125;48.812;9.206;2022-09-01T07:19:23;21.33;;;19.35;;
63038;SDS011;49125;48.812;9.206;2022-09-01T07:21:52;20.35;;;18.23;;
63038;SDS011;49125;48.812;9.206;2022-09-01T07:24:19;20.38;;;18.13;;
63038;SDS011;49125;48.812;9.206;2022-09-01T07:26:45;19.02;;;17.27;;
63038;SDS011;49125;48.812;9.206;2022-09-01T07:29:16;19.38;;;17.52;;
63038;SDS011;49125;48.812;9.206;2022-09-01T07:31:43;19.75;;;17.85;;
63038;SDS011;49125;48.812;9.206;2022-09-01T07:34:10;18.75;;;17.10;;
63038;SDS011;49125;48.812;9.206;2022-09-01T07:36:38;17.92;;;16.33;;
63038;SDS011;49125;48.812;9.206;2022-09-01T07:39:06;17.08;;;15.68;;
63038;SDS011;49125;48.812;9.206;2022-09-01T07:41:33;17.92;;;16.35;;
63038;SDS011;49125;48.812;9.206;2022-09-01T07:43:59;17.73;;;16.02;;
63038;SDS011;49125;48.812;9.206;2022-09-01T07:46:27;16.55;;;15.05;;
63038;SDS011;49125;48.812;9.206;2022-09-01T07:48:57;17.67;;;16.17;;
63038;SDS011;49125;48.812;9.206;2022-09-01T07:51:25;16.38;;;14.98;;
63038;SDS011;49125;48.812;9.206;2022-09-01T07:53:52;16.92;;;15.43;;
63038;SDS011;49125;48.812;9.206;2022-09-01T07:56:18;16.23;;;14.82;;
63038;SDS011;49125;48.812;9.206;2022-09-01T07:58:46;16.40;;;14.90;;
63038;SDS011;49125;48.812;9.206;2022-09-01T08:01:16;15.73;;;14.30;;
63038;SDS011;49125;48.812;9.206;2022-09-01T08:03:48;16.58;;;15.25;;
63038;SDS011;49125;48.812;9.206;2022-09-01T08:06:16;15.23;;;13.80;;
63038;SDS011;49125;48.812;9.206;2022-09-01T08:08:44;13.82;;;12.55;;
63038;SDS011;49125;48.812;9.206;2022-09-01T08:11:14;11.93;;;10.93;;
63038;SDS011;49125;48.812;9.206;2022-09-01T08:13:44;12.00;;;11.05;;
63038;SDS011;49125;48.812;9.206;2022-09-01T08:16:11;11.50;;;10.55;;
63038;SDS011;49125;48.812;9.206;2022-09-01T08:18:37;11.63;;;10.63;;
63038;SDS011;49125;48.812;9.206;2022-09-01T08:21:08;10.70;;;9.70;;
63038;SDS011;49125;48.812;9.206;2022-09-01T08:23:35;10.48;;;9.52;;
63038;SDS011;49125;48.812;9.206;2022-09-01T08:26:08;11.20;;;10.30;;
63038;SDS011;49125;48.812;9.206;2022-09-01T08:28:38;10.88;;;9.98;;
63038;SDS011;49125;48.812;9.206;2022-09-01T08:31:05;10.15;;;9.25;;
63038;SDS011;49125;48.812;9.206;2022-09-01T08:33:39;10.80;;;9.90;;
63038;SDS011;49125;48.812;9.206;2022-09-01T08:36:06;10.23;;;9.32;;
63038;SDS011;49125;48.812;9.206;2022-09-01T08:38:33;9.40;;;8.68;;
63038;SDS011;49125;48.812;9.206;2022-09-01T08:40:58;9.57;;;8.77;;
63038;SDS011;49125;48.812;9.206;2022-09-01T08:48:51;8.63;;;7.93;;
63038;SDS011;49125;48.812;9.206;2022-09-01T08:51:37;9.50;;;8.70;;
63038;SDS011;49125;48.812;9.206;2022-09-01T08:54:17;9.07;;;8.23;;
63038;SDS011;49125;48.812;9.206;2022-09-01T08:56:46;8.70;;;8.00;;
63038;SDS011;49125;48.812;9.206;2022-09-01T08:59:15;7.25;;;6.55;;
63038;SDS011;49125;48.812;9.206;2022-09-01T09:01:51;5.97;;;5.53;;
63038;SDS011;49125;48.812;9.206;2022-09-01T09:04:49;6.65;;;6.00;;
63038;SDS011;49125;48.812;9.206;2022-09-01T09:13:10;6.30;;;5.80;;
63038;SDS011;49125;48.812;9.206;2022-09-01T09:15:53;6.70;;;6.00;;
63038;SDS011;49125;48.812;9.206;2022-09-01T09:18:38;6.63;;;6.03;;
63038;SDS011;49125;48.812;9.206;2022-09-01T09:21:11;7.07;;;6.43;;
63038;SDS011;49125;48.812;9.206;2022-09-01T09:23:43;7.20;;;6.60;;
63038;SDS011;49125;48.812;9.206;2022-09-01T09:26:12;7.43;;;6.82;;
63038;SDS011;49125;48.812;9.206;2022-09-01T09:28:37;6.72;;;6.22;;
63038;SDS011;49125;48.812;9.206;2022-09-01T09:33:49;6.70;;;6.20;;
63038;SDS011;49125;48.812;9.206;2022-09-01T09:36:16;7.50;;;6.90;;
63038;SDS011;49125;48.812;9.206;2022-09-01T09:38:44;7.93;;;7.25;;
63038;SDS011;49125;48.812;9.206;2022-09-01T09:41:14;7.20;;;6.55;;
63038;SDS011;49125;48.812;9.206;2022-09-01T09:43:46;6.97;;;6.28;;
63038;SDS011;49125;48.812;9.206;2022-09-01T09:49:05;7.55;;;6.95;;
63038;SDS011;49125;48.812;9.206;2022-09-01T09:51:42;7.03;;;6.43;;
63038;SDS011;49125;48.812;9.206;2022-09-01T09:54:28;7.45;;;6.85;;
63038;SDS011;49125;48.812;9.206;2022-09-01T09:59:35;6.28;;;5.78;;
63038;SDS011;49125;48.812;9.206;2022-09-01T10:05:47;6.47;;;5.95;;
63038;SDS011;49125;48.812;9.206;2022-09-01T10:07:50;7.00;;;6.45;;
63038;SDS011;49125;48.812;9.206;2022-09-01T10:13:12;7.13;;;6.57;;
63038;SDS011;49125;48.812;9.206;2022-09-01T10:15:40;5.93;;;5.43;;
63038;SDS011;49125;48.812;9.206;2022-09-01T10:18:13;6.03;;;5.53;;
63038;SDS011;49125;48.812;9.206;2022-09-01T10:20:50;6.28;;;5.50;;
63038;SDS011;49125;48.812;9.206;2022-09-01T10:23:23;6.10;;;5.60;;
63038;SDS011;49125;48.812;9.206;2022-09-01T10:25:54;6.38;;;5.32;;
63038;SDS011;49125;48.812;9.206;2022-09-01T10:28:25;5.70;;;5.13;;
63038;SDS011;49125;48.812;9.206;2022-09-01T10:30:54;6.25;;;4.78;;
63038;SDS011;49125;48.812;9.206;2022-09-01T10:33:23;4.72;;;4.40;;
63038;SDS011;49125;48.812;9.206;2022-09-01T10:35:52;5.40;;;5.00;;
63038;SDS011;49125;48.812;9.206;2022-09-01T10:40:52;6.57;;;4.45;;
63038;SDS011;49125;48.812;9.206;2022-09-01T10:48:44;4.65;;;4.28;;
63038;SDS011;49125;48.812;9.206;2022-09-01T10:53:47;4.22;;;3.88;;
63038;SDS011;49125;48.812;9.206;2022-09-01T11:01:13;5.20;;;4.57;;
63038;SDS011;49125;48.812;9.206;2022-09-01T11:03:54;4.95;;;4.50;;
63038;SDS011;49125;48.812;9.206;2022-09-01T11:06:42;4.50;;;4.10;;
63038;SDS011;49125;48.812;9.206;2022-09-01T11:09:21;5.45;;;4.10;;
63038;SDS011;49125;48.812;9.206;2022-09-01T11:14:45;6.18;;;4.55;;
63038;SDS011;49125;48.812;9.206;2022-09-01T11:17:35;5.05;;;4.63;;
63038;SDS011;49125;48.812;9.206;2022-09-01T11:22:58;5.85;;;4.32;;
63038;SDS011;49125;48.812;9.206;2022-09-01T11:25:38;4.97;;;4.47;;
63038;SDS011;49125;48.812;9.206;2022-09-01T11:35:42;5.13;;;4.38;;
63038;SDS011;49125;48.812;9.206;2022-09-01T11:38:09;3.88;;;3.58;;
63038;SDS011;49125;48.812;9.206;2022-09-01T11:40:39;4.20;;;3.50;;
63038;SDS011;49125;48.812;9.206;2022-09-01T11:43:06;4.35;;;3.65;;
63038;SDS011;49125;48.812;9.206;2022-09-01T11:45:43;12.05;;;5.28;;
63038;SDS011;49125;48.812;9.206;2022-09-01T11:48:31;4.28;;;3.72;;
63038;SDS011;49125;48.812;9.206;2022-09-01T11:50:58;4.00;;;3.70;;
63038;SDS011;49125;48.812;9.206;2022-09-01T11:53:26;3.95;;;3.65;;
63038;SDS011;49125;48.812;9.206;2022-09-01T11:55:53;4.25;;;3.80;;
63038;SDS011;49125;48.812;9.206;2022-09-01T12:01:09;4.50;;;4.10;;
63038;SDS011;49125;48.812;9.206;2022-09-01T12:03:35;4.60;;;4.20;;
63038;SDS011;49125;48.812;9.206;2022-09-01T12:06:02;5.78;;;4.00;;
63038;SDS011;49125;48.812;9.206;2022-09-01T12:08:34;5.70;;;4.13;;
63038;SDS011;49125;48.812;9.206;2022-09-01T12:11:04;4.80;;;4.03;;
63038;SDS011;49125;48.812;9.206;2022-09-01T12:13:32;4.10;;;3.80;;
63038;SDS011;49125;48.812;9.206;2022-09-01T12:16:00;5.43;;;4.10;;
63038;SDS011;49125;48.812;9.206;2022-09-01T12:18:30;3.78;;;3.47;;
63038;SDS011;49125;48.812;9.206;2022-09-01T12:20:59;4.28;;;3.50;;
63038;SDS011;49125;48.812;9.206;2022-09-01T12:23:32;3.60;;;3.40;;
63038;SDS011;49125;48.812;9.206;2022-09-01T12:26:10;3.88;;;3.30;;
63038;SDS011;49125;48.812;9.206;2022-09-01T12:28:41;3.80;;;3.50;;
63038;SDS011;49125;48.812;9.206;2022-09-01T12:31:14;3.60;;;3.35;;
63038;SDS011;49125;48.812;9.206;2022-09-01T12:33:43;3.55;;;3.25;;
63038;SDS011;49125;48.812;9.206;2022-09-01T12:36:20;3.38;;;3.17;;
63038;SDS011;49125;48.812;9.206;2022-09-01T12:38:49;4.72;;;3.20;;
63038;SDS011;49125;48.812;9.206;2022-09-01T12:41:30;5.05;;;3.15;;
63038;SDS011;49125;48.812;9.206;2022-09-01T12:46:56;3.15;;;2.95;;
63038;SDS011;49125;48.812;9.206;2022-09-01T12:49:25;3.30;;;3.10;;
63038;SDS011;49125;48.812;9.206;2022-09-01T12:54:54;2.83;;;2.63;;
63038;SDS011;49125;48.812;9.206;2022-09-01T12:57:39;3.47;;;3.10;;
63038;SDS011;49125;48.812;9.206;2022-09-01T13:00:21;3.53;;;3.22;;
63038;SDS011;49125;48.812;9.206;2022-09-01T13:08:04;3.80;;;3.50;;
63038;SDS011;49125;48.812;9.206;2022-09-01T13:10:36;3.40;;;3.17;;
63038;SDS011;49125;48.812;9.206;2022-09-01T13:13:05;3.47;;;3.17;;
63038;SDS011;49125;48.812;9.206;2022-09-01T13:15:33;3.50;;;3.20;;
63038;SDS011;49125;48.812;9.206;2022-09-01T13:18:00;3.40;;;3.17;;
63038;SDS011;49125;48.812;9.206;2022-09-01T13:20:25;3.95;;;3.65;;
63038;SDS011;49125;48.812;9.206;2022-09-01T13:22:51;3.95;;;3.55;;
63038;SDS011;49125;48.812;9.206;2022-09-01T13:25:19;4.40;;;4.00;;
63038;SDS011;49125;48.812;9.206;2022-09-01T13:27:47;4.53;;;4.20;;
63038;SDS011;49125;48.812;9.206;2022-09-01T13:30:18;4.80;;;4.40;;
63038;SDS011;49125;48.812;9.206;2022-09-01T13:32:45;4.07;;;3.78;;
63038;SDS011;49125;48.812;9.206;2022-09-01T13:35:17;4.35;;;4.05;;
63038;SDS011;49125;48.812;9.206;2022-09-01T13:37:44;3.90;;;3.60;;
63038;SDS011;49125;48.812;9.206;2022-09-01T13:40:10;5.50;;;3.40;;
63038;SDS011;49125;48.812;9.206;2022-09-01T13:42:40;3.97;;;3.70;;
63038;SDS011;49125;48.812;9.206;2022-09-01T13:45:09;4.20;;;3.38;;
63038;SDS011;49125;48.812;9.206;2022-09-01T13:47:37;3.20;;;2.90;;
63038;SDS011;49125;48.812;9.206;2022-09-01T13:50:03;4.43;;;4.03;;
63038;SDS011;49125;48.812;9.206;2022-09-01T13:52:30;4.38;;;3.97;;
63038;SDS011;49125;48.812;9.206;2022-09-01T13:54:56;4.30;;;3.90;;
63038;SDS011;49125;48.812;9.206;2022-09-01T13:57:25;4.93;;;3.15;;
63038;SDS011;49125;48.812;9.206;2022-09-01T13:59:51;3.90;;;3.55;;
63038;SDS011;49125;48.812;9.206;2022-09-01T14:02:17;3.63;;;3.42;;
63038;SDS011;49125;48.812;9.206;2022-09-01T14:04:43;3.42;;;3.13;;
63038;SDS011;49125;48.812;9.206;2022-09-01T14:07:09;3.65;;;3.38;;
63038;SDS011;49125;48.812;9.206;2022-09-01T14:09:34;3.38;;;3.17;;
63038;SDS011;49125;48.812;9.206;2022-09-01T14:12:00;3.42;;;3.17;;
63038;SDS011;49125;48.812;9.206;2022-09-01T14:14:25;3.90;;;3.38;;
63038;SDS011;49125;48.812;9.206;2022-09-01T14:16:51;3.40;;;3.10;;
63038;SDS011;49125;48.812;9.206;2022-09-01T14:19:17;3.40;;;3.20;;
63038;SDS011;49125;48.812;9.206;2022-09-01T14:21:43;3.53;;;3.22;;
63038;SDS011;49125;48.812;9.206;2022-09-01T14:24:09;3.00;;;2.80;;
63038;SDS011;49125;48.812;9.206;2022-09-01T14:26:34;3.35;;;3.05;;
63038;SDS011;49125;48.812;9.206;2022-09-01T14:29:00;3.45;;;3.15;;
63038;SDS011;49125;48.812;9.206;2022-09-01T14:31:26;3.22;;;3.03;;
63038;SDS011;49125;48.812;9.206;2022-09-01T14:33:53;3.58;;;3.28;;
63038;SDS011;49125;48.812;9.206;2022-09-01T14:36:24;3.63;;;3.33;;
63038;SDS011;49125;48.812;9.206;2022-09-01T14:38:50;3.53;;;3.22;;
63038;SDS011;49125;48.812;9.206;2022-09-01T14:41:17;3.17;;;2.88;;
63038;SDS011;49125;48.812;9.206;2022-09-01T14:43:48;3.22;;;3.00;;
63038;SDS011;49125;48.812;9.206;2022-09-01T14:46:14;3.85;;;2.80;;
63038;SDS011;49125;48.812;9.206;2022-09-01T14:48:41;4.47;;;2.83;;
63038;SDS011;49125;48.812;9.206;2022-09-01T14:51:07;3.03;;;2.75;;
63038;SDS011;49125;48.812;9.206;2022-09-01T14:53:34;3.33;;;3.03;;
63038;SDS011;49125;48.812;9.206;2022-09-01T14:56:00;4.07;;;2.72;;
63038;SDS011;49125;48.812;9.206;2022-09-01T14:58:26;3.20;;;2.88;;
63038;SDS011;49125;48.812;9.206;2022-09-01T15:00:53;3.42;;;3.00;;
63038;SDS011;49125;48.812;9.206;2022-09-01T15:03:22;3.53;;;3.20;;
63038;SDS011;49125;48.812;9.206;2022-09-01T15:05:50;4.18;;;2.90;;
63038;SDS011;49125;48.812;9.206;2022-09-01T15:08:16;3.45;;;3.10;;
63038;SDS011;49125;48.812;9.206;2022-09-01T15:10:41;2.90;;;2.60;;
63038;SDS011;49125;48.812;9.206;2022-09-01T15:13:07;2.90;;;2.70;;
63038;SDS011;49125;48.812;9.206;2022-09-01T15:15:33;4.65;;;2.95;;
63038;SDS011;49125;48.812;9.206;2022-09-01T15:17:59;2.95;;;2.75;;
63038;SDS011;49125;48.812;9.206;2022-09-01T15:20:26;2.97;;;2.72;;
63038;SDS011;49125;48.812;9.206;2022-09-01T15:23:11;2.58;;;2.42;;
63038;SDS011;49125;48.812;9.206;2022-09-01T15:25:38;3.20;;;3.00;;
63038;SDS011;49125;48.812;9.206;2022-09-01T15:28:04;4.50;;;2.95;;
63038;SDS011;49125;48.812;9.206;2022-09-01T15:30:30;3.47;;;3.17;;
63038;SDS011;49125;48.812;9.206;2022-09-01T15:32:56;3.33;;;2.88;;
63038;SDS011;49125;48.812;9.206;2022-09-01T15:35:22;3.10;;;2.80;;
63038;SDS011;49125;48.812;9.206;2022-09-01T15:37:48;6.95;;;3.42;;
63038;SDS011;49125;48.812;9.206;2022-09-01T15:40:16;2.95;;;2.75;;
63038;SDS011;49125;48.812;9.206;2022-09-01T15:42:42;2.60;;;2.40;;
63038;SDS011;49125;48.812;9.206;2022-09-01T15:45:10;2.65;;;2.45;;
63038;SDS011;49125;48.812;9.206;2022-09-01T15:47:38;4.13;;;2.50;;
63038;SDS011;49125;48.812;9.206;2022-09-01T15:50:05;4.18;;;3.22;;
63038;SDS011;49125;48.812;9.206;2022-09-01T15:52:32;3.13;;;2.83;;
63038;SDS011;49125;48.812;9.206;2022-09-01T15:54:59;4.30;;;3.30;;
63038;SDS011;49125;48.812;9.206;2022-09-01T15:57:26;4.57;;;2.85;;